createdAt,value
2018-05-13T00:00:41.812Z,18.50
2018-05-13T00:03:14.273Z,18.50
2018-05-13T00:05:44.950Z,18.50
2018-05-13T00:08:16.152Z,18.50
2018-05-13T00:10:46.589Z,18.40
2018-05-13T00:13:17.009Z,18.40
2018-05-13T00:15:46.668Z,18.40
2018-05-13T00:18:17.246Z,18.40
2018-05-13T00:20:47.624Z,18.30
2018-05-13T00:23:19.950Z,18.30
2018-05-13T00:25:50.344Z,18.30
2018-05-13T00:28:21.533Z,18.20
2018-05-13T00:30:52.144Z,18.20
2018-05-13T00:33:22.508Z,18.20
2018-05-13T00:35:52.229Z,18.10
2018-05-13T00:38:21.972Z,18.10
2018-05-13T00:40:52.395Z,18.00
2018-05-13T00:43:23.881Z,17.90
2018-05-13T00:45:53.817Z,17.90
2018-05-13T00:48:24.320Z,17.90
2018-05-13T00:50:54.178Z,17.80
2018-05-13T00:53:24.665Z,17.90
2018-05-13T00:55:56.206Z,17.80
2018-05-13T00:58:26.690Z,17.80
2018-05-13T01:00:57.581Z,17.80
2018-05-13T01:03:29.736Z,17.80
2018-05-13T01:05:59.685Z,17.80
2018-05-13T01:08:30.122Z,17.80
2018-05-13T01:11:01.349Z,17.80
2018-05-13T01:13:31.460Z,17.70
2018-05-13T01:16:02.520Z,17.70
2018-05-13T01:18:32.383Z,17.70
2018-05-13T01:21:02.784Z,17.70
2018-05-13T01:23:33.234Z,17.60
2018-05-13T01:26:05.794Z,17.60
2018-05-13T01:28:37.122Z,17.40
2018-05-13T01:31:07.128Z,17.40
2018-05-13T01:33:37.877Z,17.50
2018-05-13T01:36:08.487Z,17.50
2018-05-13T01:38:38.238Z,17.40
2018-05-13T01:41:09.609Z,17.40
2018-05-13T01:43:40.855Z,17.40
2018-05-13T01:46:11.584Z,17.50
2018-05-13T01:48:41.937Z,17.60
2018-05-13T01:51:14.322Z,17.50
2018-05-13T01:53:44.542Z,17.50
2018-05-13T01:56:15.111Z,17.50
2018-05-13T01:58:45.865Z,17.50
2018-05-13T02:01:16.373Z,17.50
2018-05-13T02:03:47.034Z,17.70
2018-05-13T02:06:17.306Z,17.60
2018-05-13T02:08:47.222Z,17.70
2018-05-13T02:11:19.545Z,17.60
2018-05-13T02:13:50.894Z,17.70
2018-05-13T02:16:22.278Z,17.70
2018-05-13T02:18:52.671Z,17.70
2018-05-13T02:21:23.304Z,17.70
2018-05-13T02:23:52.904Z,17.70
2018-05-13T02:26:23.492Z,17.70
2018-05-13T02:28:54.715Z,17.70
2018-05-13T02:31:25.523Z,17.70
2018-05-13T02:33:56.707Z,17.70
2018-05-13T02:36:26.389Z,17.70
2018-05-13T02:38:57.241Z,17.80
2018-05-13T02:41:27.498Z,17.80
2018-05-13T02:43:58.829Z,17.50
2018-05-13T02:46:29.841Z,17.50
2018-05-13T02:49:00.493Z,17.50
2018-05-13T02:51:31.049Z,17.60
2018-05-13T02:54:02.213Z,17.60
2018-05-13T02:56:32.477Z,17.60
2018-05-13T02:59:02.852Z,17.70
2018-05-13T03:01:34.192Z,17.70
2018-05-13T03:04:06.929Z,17.80
2018-05-13T03:06:38.408Z,17.80
2018-05-13T03:09:10.901Z,17.90
2018-05-13T03:11:44.433Z,18.00
2018-05-13T03:14:14.729Z,18.00
2018-05-13T03:16:45.345Z,18.20
2018-05-13T03:19:16.761Z,18.20
2018-05-13T03:21:47.239Z,18.20
2018-05-13T03:24:17.644Z,18.20
2018-05-13T03:26:50.678Z,18.10
2018-05-13T03:29:23.130Z,18.10
2018-05-13T03:31:54.484Z,17.90
2018-05-13T03:34:25.862Z,17.80
2018-05-13T03:36:56.303Z,17.60
2018-05-13T03:39:26.550Z,17.60
2018-05-13T03:41:56.371Z,17.50
2018-05-13T03:44:26.760Z,17.40
2018-05-13T03:46:57.163Z,17.40
2018-05-13T03:49:27.163Z,17.40
2018-05-13T03:51:58.559Z,17.30
2018-05-13T03:54:28.346Z,17.30
2018-05-13T03:57:00.730Z,17.30
2018-05-13T03:59:30.666Z,17.30
2018-05-13T04:02:01.474Z,17.30
2018-05-13T04:04:33.728Z,17.30
2018-05-13T04:07:04.007Z,17.20
2018-05-13T04:09:45.191Z,17.20
2018-05-13T04:12:27.254Z,17.10
2018-05-13T04:15:08.620Z,17.10
2018-05-13T04:17:41.115Z,17.10
2018-05-13T04:20:13.297Z,17.10
2018-05-13T04:22:47.235Z,17.10
2018-05-13T04:25:17.881Z,17.10
2018-05-13T04:27:47.742Z,17.10
2018-05-13T04:30:18.046Z,17.20
2018-05-13T04:32:50.507Z,17.10
2018-05-13T04:35:22.790Z,17.10
2018-05-13T04:37:55.801Z,16.90
2018-05-13T04:40:28.089Z,16.60
2018-05-13T04:42:58.815Z,16.50
2018-05-13T04:45:31.165Z,16.50
2018-05-13T04:48:03.570Z,16.50
2018-05-13T04:50:35.208Z,16.30
2018-05-13T04:53:05.549Z,16.30
2018-05-13T04:55:38.470Z,16.20
2018-05-13T04:58:09.020Z,16.20
2018-05-13T05:00:39.484Z,16.30
2018-05-13T05:03:10.315Z,16.40
2018-05-13T05:05:42.512Z,16.40
2018-05-13T05:08:13.208Z,16.50
2018-05-13T05:10:43.508Z,16.50
2018-05-13T05:13:14.068Z,16.60
2018-05-13T05:15:44.610Z,16.60
2018-05-13T05:18:15.241Z,16.80
2018-05-13T05:20:46.449Z,17.00
2018-05-13T05:23:16.784Z,17.00
2018-05-13T05:25:49.132Z,17.20
2018-05-13T05:28:19.521Z,17.10
2018-05-13T05:30:50.880Z,17.10
2018-05-13T05:33:20.756Z,17.10
2018-05-13T05:35:53.353Z,17.10
2018-05-13T05:38:26.598Z,17.00
2018-05-13T05:40:56.694Z,17.00
2018-05-13T05:43:27.250Z,17.00
2018-05-13T05:46:01.871Z,17.00
2018-05-13T05:48:32.313Z,16.90
2018-05-13T05:51:02.742Z,16.90
2018-05-13T05:53:34.490Z,16.80
2018-05-13T05:56:06.850Z,16.90
2018-05-13T05:58:37.400Z,17.00
2018-05-13T06:01:09.813Z,17.10
2018-05-13T06:03:41.686Z,17.30
2018-05-13T06:06:11.457Z,17.20
2018-05-13T06:08:42.027Z,17.30
2018-05-13T06:11:13.055Z,17.40
2018-05-13T06:13:44.216Z,18.10
2018-05-13T06:16:14.299Z,18.10
2018-05-13T06:18:46.807Z,18.10
2018-05-13T06:21:16.572Z,18.00
2018-05-13T06:23:49.375Z,17.80
2018-05-13T06:26:20.289Z,17.50
2018-05-13T06:28:52.810Z,17.50
2018-05-13T06:31:26.582Z,17.40
2018-05-13T06:33:58.610Z,17.30
2018-05-13T06:36:30.903Z,17.20
2018-05-13T06:39:00.636Z,17.30
2018-05-13T06:41:31.394Z,17.30
2018-05-13T06:44:01.351Z,17.30
2018-05-13T06:46:30.731Z,17.60
2018-05-13T07:17:10.840Z,17.70
2018-05-13T07:19:44.509Z,17.60
2018-05-13T07:22:14.459Z,17.60
2018-05-13T07:24:44.153Z,17.70
2018-05-13T07:27:14.694Z,17.90
2018-05-13T07:29:45.802Z,17.90
2018-05-13T07:32:16.069Z,17.90
2018-05-13T07:34:46.595Z,17.80
2018-05-13T07:37:16.846Z,17.70
2018-05-13T07:39:47.533Z,17.60
2018-05-13T07:42:17.852Z,17.30
2018-05-13T07:44:47.762Z,17.30
2018-05-13T07:47:22.867Z,17.10
2018-05-13T07:49:54.688Z,16.90
2018-05-13T07:52:26.539Z,16.70
2018-05-13T07:54:59.728Z,16.70
2018-05-13T07:57:31.522Z,16.80
2018-05-13T08:00:01.681Z,16.70
2018-05-13T08:02:32.090Z,16.70
2018-05-13T08:05:01.803Z,16.70
2018-05-13T08:07:33.484Z,16.80
2018-05-13T08:10:06.927Z,16.60
2018-05-13T08:12:39.176Z,16.60
2018-05-13T08:15:09.557Z,16.50
2018-05-13T08:17:39.486Z,16.40
2018-05-13T08:20:11.485Z,16.40
2018-05-13T08:22:41.694Z,16.30
2018-05-13T08:25:13.698Z,16.10
2018-05-13T08:27:44.700Z,16.00
2018-05-13T08:30:15.593Z,15.90
2018-05-13T08:32:46.180Z,15.90
2018-05-13T08:35:16.367Z,15.90
2018-05-13T08:37:49.095Z,15.70
2018-05-13T08:40:19.529Z,15.70
2018-05-13T08:42:49.819Z,15.70
2018-05-13T08:45:19.878Z,15.80
2018-05-13T08:47:52.037Z,15.70
2018-05-13T08:50:21.974Z,15.50
2018-05-13T08:52:52.249Z,15.60
2018-05-13T08:55:22.190Z,15.50
2018-05-13T08:57:52.071Z,15.40
2018-05-13T09:00:22.156Z,15.40
2018-05-13T09:02:52.386Z,15.30
2018-05-13T09:05:22.928Z,15.20
2018-05-13T09:07:54.722Z,15.20
2018-05-13T09:10:25.120Z,15.20
2018-05-13T09:12:55.284Z,15.20
2018-05-13T09:15:25.842Z,15.20
2018-05-13T09:17:56.055Z,15.20
2018-05-13T09:20:26.310Z,15.10
2018-05-13T09:22:57.105Z,15.30
2018-05-13T09:25:27.371Z,15.30
2018-05-13T09:27:58.189Z,15.10
2018-05-13T09:30:31.119Z,15.10
2018-05-13T09:33:00.857Z,15.10
2018-05-13T09:35:30.759Z,15.10
2018-05-13T09:38:01.320Z,15.10
2018-05-13T09:40:32.552Z,15.10
2018-05-13T09:43:04.672Z,15.10
2018-05-13T09:45:34.922Z,15.10
2018-05-13T09:48:05.392Z,15.10
2018-05-13T09:50:45.235Z,15.20
2018-05-13T09:53:16.072Z,15.30
2018-05-13T09:55:45.824Z,15.30
2018-05-13T09:58:15.604Z,15.30
2018-05-13T10:00:45.490Z,15.30
2018-05-13T10:03:23.191Z,15.30
2018-05-13T10:16:05.271Z,14.90
2018-05-13T10:18:36.294Z,15.00
2018-05-13T10:21:05.919Z,15.00
2018-05-13T10:23:37.597Z,15.00
2018-05-13T10:26:07.005Z,15.00
2018-05-13T10:28:38.202Z,15.00
2018-05-13T10:31:08.213Z,15.10
2018-05-13T10:33:38.594Z,15.10
2018-05-13T10:36:10.501Z,15.10
2018-05-13T10:38:40.276Z,15.00
2018-05-13T10:41:11.168Z,15.00
2018-05-13T10:43:42.949Z,15.00
2018-05-13T10:46:15.947Z,15.00
2018-05-13T10:48:45.914Z,14.90
2018-05-13T10:51:15.528Z,14.80
2018-05-13T10:53:54.705Z,14.80
2018-05-13T10:56:32.254Z,14.80
2018-05-13T10:59:02.491Z,14.80
2018-05-13T11:01:31.800Z,14.80
2018-05-13T11:04:09.429Z,14.80
2018-05-13T11:06:46.994Z,14.80
2018-05-13T11:09:17.891Z,14.80
2018-05-13T11:11:49.951Z,14.80
2018-05-13T11:14:19.773Z,14.80
2018-05-13T11:16:50.282Z,14.80
2018-05-13T11:19:21.259Z,14.80
2018-05-13T11:21:50.783Z,14.80
2018-05-13T11:24:28.314Z,14.70
2018-05-13T11:27:05.898Z,14.70
2018-05-13T11:29:38.630Z,14.80
2018-05-13T11:32:09.856Z,14.90
2018-05-13T11:34:39.185Z,14.90
2018-05-13T11:37:10.099Z,14.90
2018-05-13T11:39:42.261Z,14.90
2018-05-13T11:42:12.188Z,14.90
2018-05-13T11:44:48.438Z,15.00
2018-05-13T11:47:20.521Z,15.00
2018-05-13T11:49:52.719Z,15.10
2018-05-13T11:52:25.354Z,15.30
2018-05-13T11:54:54.978Z,15.20
2018-05-13T11:57:26.921Z,15.20
2018-05-13T11:59:56.940Z,15.30
2018-05-13T12:02:29.586Z,15.30
2018-05-13T12:04:59.556Z,15.40
2018-05-13T12:07:37.454Z,15.30
2018-05-13T12:10:16.720Z,15.40
2018-05-13T12:12:45.779Z,15.40
2018-05-13T12:15:28.801Z,15.40
2018-05-13T12:18:07.586Z,15.40
2018-05-13T12:20:43.775Z,15.40
2018-05-13T12:23:27.201Z,15.30
2018-05-13T12:26:04.546Z,15.30
2018-05-13T12:28:40.140Z,15.20
2018-05-13T12:31:10.260Z,15.20
2018-05-13T12:33:41.423Z,15.20
2018-05-13T12:36:21.758Z,15.20
2018-05-13T12:39:04.336Z,15.20
2018-05-13T12:41:35.419Z,15.00
2018-05-13T12:44:05.387Z,15.00
2018-05-13T12:46:35.496Z,15.00
2018-05-13T12:49:05.115Z,15.10
2018-05-13T12:51:34.911Z,15.10
2018-05-13T12:54:07.826Z,15.10
2018-05-13T12:56:38.159Z,15.00
2018-05-13T12:59:08.450Z,15.00
2018-05-13T13:01:40.737Z,15.10
2018-05-13T13:04:12.834Z,15.10
2018-05-13T13:06:43.282Z,15.10
2018-05-13T13:09:13.273Z,15.10
2018-05-13T13:11:43.567Z,15.10
2018-05-13T13:14:13.129Z,15.10
2018-05-13T13:16:45.002Z,15.20
2018-05-13T13:19:15.480Z,15.40
2018-05-13T13:21:46.533Z,15.30
2018-05-13T13:24:17.683Z,15.40
2018-05-13T13:26:47.432Z,15.40
2018-05-13T13:29:20.498Z,15.20
2018-05-13T13:31:50.711Z,15.20
2018-05-13T13:34:20.640Z,15.20
2018-05-13T13:36:50.263Z,15.20
2018-05-13T13:39:21.056Z,15.20
2018-05-13T13:41:50.947Z,15.20
2018-05-13T13:44:20.661Z,15.30
2018-05-13T13:46:51.880Z,15.30
2018-05-13T13:49:22.194Z,15.30
2018-05-13T13:51:53.742Z,15.30
2018-05-13T13:54:24.623Z,15.50
2018-05-13T13:56:54.213Z,15.50
2018-05-13T13:59:26.175Z,15.40
2018-05-13T14:01:59.002Z,15.40
2018-05-13T14:04:31.075Z,15.50
2018-05-13T14:07:03.140Z,15.50
2018-05-13T14:09:33.476Z,15.40
2018-05-13T14:12:06.468Z,15.40
2018-05-13T14:14:39.236Z,15.20
2018-05-13T14:17:11.427Z,15.20
2018-05-13T14:19:41.296Z,15.10
2018-05-13T14:22:11.437Z,15.10
2018-05-13T14:24:42.175Z,15.10
2018-05-13T14:27:12.472Z,15.20
2018-05-13T14:29:42.287Z,15.30
2018-05-13T14:32:12.841Z,15.30
2018-05-13T14:34:43.243Z,15.50
2018-05-13T14:37:16.184Z,15.50
2018-05-13T14:39:45.932Z,15.60
2018-05-13T14:42:16.039Z,15.60
2018-05-13T14:44:45.702Z,15.60
2018-05-13T14:47:17.682Z,15.50
2018-05-13T14:49:48.726Z,15.50
2018-05-13T14:52:18.426Z,15.50
2018-05-13T14:54:52.020Z,15.50
2018-05-13T14:57:22.236Z,15.50
2018-05-13T14:59:55.553Z,15.60
2018-05-13T15:02:26.287Z,15.50
2018-05-13T15:04:58.649Z,15.70
2018-05-13T15:07:32.730Z,15.70
2018-05-13T15:10:04.974Z,15.70
2018-05-13T15:12:35.424Z,15.70
2018-05-13T15:15:07.513Z,15.60
2018-05-13T15:17:40.554Z,15.60
2018-05-13T15:20:11.347Z,15.60
2018-05-13T15:22:41.955Z,15.50
2018-05-13T15:25:11.695Z,15.70
2018-05-13T15:27:43.249Z,15.90
2018-05-13T15:30:15.191Z,16.10
2018-05-13T15:32:46.026Z,16.20
2018-05-13T15:35:16.623Z,16.10
2018-05-13T15:37:46.287Z,16.10
2018-05-13T15:40:15.929Z,16.10
2018-05-13T15:42:47.965Z,16.00
2018-05-13T15:45:18.927Z,16.00
2018-05-13T15:47:49.052Z,16.00
2018-05-13T15:50:20.290Z,16.00
2018-05-13T15:52:52.250Z,16.00
2018-05-13T15:55:24.469Z,15.90
2018-05-13T15:57:54.794Z,16.10
2018-05-13T16:00:26.551Z,16.10
2018-05-13T16:02:57.282Z,16.00
2018-05-13T16:05:30.004Z,16.00
2018-05-13T16:08:00.799Z,16.00
2018-05-13T16:10:32.440Z,16.00
2018-05-13T16:13:03.935Z,16.00
2018-05-13T16:15:33.839Z,16.00
2018-05-13T16:18:03.853Z,16.00
2018-05-13T16:20:36.505Z,16.00
2018-05-13T16:23:07.783Z,16.00
2018-05-13T16:25:39.726Z,15.90
2018-05-13T16:28:12.782Z,15.80
2018-05-13T16:30:43.060Z,15.80
2018-05-13T16:33:15.107Z,15.70
2018-05-13T16:35:45.330Z,15.70
2018-05-13T16:38:18.331Z,15.60
2018-05-13T16:40:51.164Z,15.60
2018-05-13T16:43:21.983Z,15.60
2018-05-13T16:45:51.917Z,15.50
2018-05-13T16:48:22.028Z,15.40
2018-05-13T16:50:54.776Z,15.30
2018-05-13T16:53:27.862Z,15.30
2018-05-13T16:55:57.576Z,15.20
2018-05-13T16:58:27.374Z,15.10
2018-05-13T17:01:01.151Z,15.00
2018-05-13T17:03:31.377Z,14.90
2018-05-13T17:06:04.382Z,14.80
2018-05-13T17:08:34.646Z,14.80
2018-05-13T17:11:06.877Z,14.80
2018-05-13T17:13:39.570Z,14.80
2018-05-13T17:16:11.410Z,14.70
2018-05-13T17:18:42.483Z,14.70
2018-05-13T17:21:15.295Z,14.60
2018-05-13T17:23:45.438Z,14.60
2018-05-13T17:26:17.473Z,14.60
2018-05-13T17:28:48.807Z,14.60
2018-05-13T17:31:19.078Z,14.50
2018-05-13T17:33:52.291Z,14.40
2018-05-13T17:36:26.436Z,14.40
2018-05-13T17:38:56.827Z,14.40
2018-05-13T17:41:27.222Z,14.40
2018-05-13T17:43:57.609Z,14.40
2018-05-13T17:46:27.692Z,14.40
2018-05-13T17:48:58.455Z,14.30
2018-05-13T17:51:28.174Z,14.30
2018-05-13T17:53:58.023Z,14.30
2018-05-13T17:56:28.530Z,14.30
2018-05-13T17:58:58.686Z,14.30
2018-05-13T18:01:31.867Z,14.30
2018-05-13T18:04:01.585Z,14.30
2018-05-13T18:06:32.253Z,14.30
2018-05-13T18:09:02.719Z,14.30
2018-05-13T18:11:33.624Z,14.40
2018-05-13T18:14:05.428Z,14.30
2018-05-13T18:16:35.270Z,14.30
2018-05-13T18:19:06.475Z,14.30
2018-05-13T18:21:39.679Z,14.30
2018-05-13T18:24:10.346Z,14.30
2018-05-13T18:26:40.734Z,14.40
2018-05-13T18:29:10.466Z,14.40
2018-05-13T18:31:42.138Z,14.30
2018-05-13T18:34:14.207Z,14.30
2018-05-13T18:36:44.376Z,14.30
2018-05-13T18:39:14.869Z,14.30
2018-05-13T18:41:44.896Z,14.30
2018-05-13T18:44:17.704Z,14.30
2018-05-13T18:46:48.123Z,14.20
2018-05-13T18:49:17.876Z,14.20
2018-05-13T18:51:48.680Z,14.10
2018-05-13T18:54:20.614Z,14.10
2018-05-13T18:56:52.534Z,14.20
2018-05-13T18:59:23.647Z,14.10
2018-05-13T19:01:53.435Z,14.10
2018-05-13T19:04:23.734Z,14.10
2018-05-13T19:06:55.852Z,14.10
2018-05-13T19:09:27.548Z,14.10
2018-05-13T19:11:57.806Z,14.00
2018-05-13T19:14:27.638Z,13.90
2018-05-13T19:16:59.970Z,14.00
2018-05-13T19:19:31.767Z,13.90
2018-05-13T19:22:01.471Z,13.80
2018-05-13T19:24:33.550Z,13.80
2018-05-13T19:27:05.997Z,13.80
2018-05-13T19:29:36.784Z,13.80
2018-05-13T19:32:08.396Z,13.70
2018-05-13T19:34:38.945Z,13.70
2018-05-13T19:37:09.325Z,13.70
2018-05-13T19:39:41.440Z,13.80
2018-05-13T19:42:14.288Z,13.80
2018-05-13T19:44:44.517Z,13.80
2018-05-13T19:47:16.107Z,13.80
2018-05-13T19:49:47.024Z,13.80
2018-05-13T19:52:18.467Z,13.80
2018-05-13T19:54:50.470Z,13.80
2018-05-13T19:57:20.811Z,13.80
2018-05-13T19:59:52.896Z,13.90
2018-05-13T20:02:23.233Z,13.90
2018-05-13T20:04:53.702Z,13.80
2018-05-13T20:07:26.593Z,13.80
2018-05-13T20:09:58.155Z,13.70
2018-05-13T20:12:31.545Z,13.70
2018-05-13T20:15:04.445Z,13.70
2018-05-13T20:17:36.699Z,13.70
2018-05-13T20:20:07.833Z,13.70
2018-05-13T20:22:58.503Z,13.70
2018-05-13T20:25:28.252Z,13.70
2018-05-13T20:27:58.994Z,13.70
2018-05-13T20:30:28.756Z,13.70
2018-05-13T20:32:58.495Z,13.70
2018-05-13T20:35:30.599Z,13.70
2018-05-13T20:38:02.399Z,13.70
2018-05-13T20:40:32.128Z,13.60
2018-05-13T20:43:04.367Z,13.60
2018-05-13T20:45:34.139Z,13.60
2018-05-13T20:48:03.961Z,13.60
2018-05-13T20:50:35.747Z,13.50
2018-05-13T20:53:05.339Z,13.50
2018-05-13T20:55:35.915Z,13.50
2018-05-13T20:58:06.385Z,13.60
2018-05-13T21:00:36.683Z,13.60
2018-05-13T21:03:07.163Z,13.50
2018-05-13T21:05:37.341Z,13.40
2018-05-13T21:08:09.141Z,13.50
2018-05-13T21:10:38.825Z,13.50
2018-05-13T21:13:08.566Z,13.50
2018-05-13T21:15:40.771Z,13.50
2018-05-13T21:18:12.997Z,13.40
2018-05-13T21:20:43.577Z,13.40
2018-05-13T21:23:14.606Z,13.50
2018-05-13T21:25:45.691Z,13.50
2018-05-13T21:28:16.617Z,13.50
2018-05-13T21:30:46.941Z,13.50
2018-05-13T21:33:19.023Z,13.50
2018-05-13T21:35:50.993Z,13.50
2018-05-13T21:38:23.009Z,13.50
2018-05-13T21:40:55.871Z,13.50
2018-05-13T21:43:25.635Z,13.50
2018-05-13T21:45:55.646Z,13.70
2018-05-13T21:48:25.375Z,13.60
2018-05-13T21:50:55.180Z,13.60
2018-05-13T21:53:25.491Z,13.60
2018-05-13T21:55:57.251Z,13.60
2018-05-13T21:58:27.018Z,13.60
2018-05-13T22:00:59.286Z,13.50
2018-05-13T22:03:30.937Z,13.50
2018-05-13T22:06:01.800Z,13.50
2018-05-13T22:08:33.910Z,13.50
2018-05-13T22:11:04.340Z,13.50
2018-05-13T22:13:35.201Z,13.50
2018-05-13T22:16:07.255Z,13.50
2018-05-13T22:18:36.984Z,13.50
2018-05-13T22:21:06.780Z,13.40
2018-05-13T22:23:39.185Z,13.30
2018-05-13T22:26:11.946Z,13.30
2018-05-13T22:28:42.800Z,13.30
2018-05-13T22:31:13.359Z,13.20
2018-05-13T22:33:43.759Z,13.20
2018-05-13T22:36:14.346Z,13.20
2018-05-13T22:38:44.058Z,13.20
2018-05-13T22:41:13.783Z,13.20
2018-05-13T22:43:43.650Z,13.10
2018-05-13T22:46:15.760Z,13.10
2018-05-13T22:48:47.568Z,13.20
2018-05-13T22:51:19.093Z,13.20
2018-05-13T22:53:51.696Z,13.20
2018-05-13T22:56:22.024Z,13.20
2018-05-13T22:58:53.831Z,13.20
2018-05-13T23:01:26.223Z,13.10
2018-05-13T23:03:57.971Z,13.10
2018-05-13T23:06:32.850Z,13.10
2018-05-13T23:09:02.527Z,13.00
2018-05-13T23:11:34.966Z,13.00
2018-05-13T23:14:04.915Z,12.90
2018-05-13T23:16:36.357Z,12.90
2018-05-13T23:19:06.051Z,12.80
2018-05-13T23:21:37.666Z,12.90
2018-05-13T23:24:09.571Z,12.90
2018-05-13T23:26:41.224Z,12.80
2018-05-13T23:29:13.055Z,12.80
2018-05-13T23:31:43.047Z,12.80
2018-05-13T23:34:15.031Z,12.70
2018-05-13T23:36:47.051Z,12.70
2018-05-13T23:39:19.673Z,12.70
2018-05-13T23:41:51.905Z,12.70
2018-05-13T23:44:25.167Z,12.70
2018-05-13T23:46:55.466Z,12.70
2018-05-13T23:49:26.378Z,12.70
2018-05-13T23:51:57.304Z,12.70
2018-05-13T23:54:29.869Z,12.70
2018-05-13T23:57:02.697Z,12.70
2018-05-13T23:59:32.922Z,12.70
